Time;durP1;ratioP1;P1;durP2;ratioP2;P2;SDS_P1;SDS_P2;PMS_P1;PMS_P2;Temp;Humidity;BMP_temperature;BMP_pressure;BME280_temperature;BME280_humidity;BME280_pressure;Samples;Min_cycle;Max_cycle;Signal;HPM_P1;HPM_P2
2022/06/17 00:00:51;;;;;;;;;;;;;;;12.96;87.28;100216.67;1758836;81;21352;-71
2022/06/17 00:03:18;;;;;;;10.38;5.17;;;;;;;12.90;87.43;100214.30;1736211;81;20138;-72
2022/06/17 00:05:44;;;;;;;7.03;4.95;;;;;;;12.83;87.85;100215.51;1726034;83;21893;-73
2022/06/17 00:08:18;;;;;;;7.92;5.40;;;;;;;12.76;88.45;100220.20;1726186;82;21074;-72
2022/06/17 00:10:45;;;;;;;10.82;5.28;;;;;;;12.70;88.96;100216.06;1730765;82;20981;-73
2022/06/17 00:13:13;;;;;;;12.15;5.12;;;;;;;12.64;89.40;100215.00;1724359;82;21188;-72
2022/06/17 00:15:41;;;;;;;9.33;5.28;;;;;;;12.60;89.81;100216.06;1718414;83;20973;-72
2022/06/17 00:18:09;;;;;;;12.13;5.90;;;;;;;12.56;90.11;100219.31;1718301;83;21041;-72
2022/06/17 00:20:35;;;;;;;7.70;4.83;;;;;;;12.53;90.24;100220.75;1718127;83;21030;-73
2022/06/17 00:23:03;;;;;;;6.53;4.47;;;;;;;12.50;90.24;100222.22;1730631;82;21056;-72
2022/06/17 00:25:33;;;;;;;7.08;5.17;;;;;;;12.49;90.29;100223.59;1748448;82;21111;-71
2022/06/17 00:28:00;;;;;;;8.60;4.78;;;;;;;12.48;90.66;100223.21;1747832;82;21081;-72
2022/06/17 00:30:30;;;;;;;6.97;4.90;;;;;;;12.47;91.01;100221.48;1748022;82;21081;-73
2022/06/17 00:33:01;;;;;;;6.87;5.40;;;;;;;12.43;91.24;100217.28;1748105;81;21049;-72
2022/06/17 00:35:33;;;;;;;10.37;5.40;;;;;;;12.39;91.44;100220.03;1748452;82;21038;-74
2022/06/17 00:38:01;;;;;;;7.62;5.00;;;;;;;12.38;91.85;100217.00;1747145;82;21304;-72
2022/06/17 00:40:31;;;;;;;6.58;5.10;;;;;;;12.30;92.09;100209.02;1748263;82;21112;-73
2022/06/17 00:43:04;;;;;;;9.50;5.22;;;;;;;12.32;92.29;100217.26;1747926;82;21517;-73
2022/06/17 00:45:47;;;;;;;8.48;5.62;;;;;;;12.30;92.05;100213.82;1730156;82;21085;-72
2022/06/17 00:48:23;;;;;;;7.50;5.42;;;;;;;12.28;92.07;100213.03;1689929;83;21154;-72
2022/06/17 00:51:00;;;;;;;12.68;5.47;;;;;;;12.24;92.55;100211.91;1718533;82;21150;-72
2022/06/17 00:53:44;;;;;;;10.25;5.92;;;;;;;12.20;92.85;100213.83;1718133;83;21081;-72
2022/06/17 00:56:25;;;;;;;8.68;5.20;;;;;;;12.17;93.20;100213.97;1716501;82;21207;-72
2022/06/17 00:59:04;;;;;;;;;;;;;;;12.14;93.59;100211.44;1718049;83;21517;-71
2022/06/17 01:01:50;;;;;;;11.12;6.00;;;;;;;12.08;93.75;100201.16;1715426;82;20137;-72
2022/06/17 01:04:22;;;;;;;9.30;5.08;;;;;;;12.05;93.93;100201.27;1686791;83;21939;-71
2022/06/17 01:06:53;;;;;;;7.12;5.35;;;;;;;12.01;94.00;100202.31;1715134;83;21052;-71
2022/06/17 01:12:13;;;;;;;7.95;5.50;;;;;;;11.94;94.42;100202.59;1714787;83;21045;-71
2022/06/17 01:14:41;;;;;;;8.23;5.75;;;;;;;11.90;94.58;100203.63;1714790;83;21073;-71
2022/06/17 01:17:11;;;;;;;9.00;5.80;;;;;;;11.86;94.75;100202.00;1714903;83;21131;-71
2022/06/17 01:19:52;;;;;;;11.63;5.80;;;;;;;11.83;94.79;100207.41;1714808;83;21715;-70
2022/06/17 01:22:37;;;;;;;8.88;5.85;;;;;;;11.79;94.95;100200.53;1732702;82;21029;-71
2022/06/17 01:25:10;;;;;;;9.15;6.10;;;;;;;11.75;95.25;100200.26;1744616;82;21037;-72
2022/06/17 01:27:48;;;;;;;10.88;5.75;;;;;;;11.71;95.37;100199.54;1744603;82;21128;-71
2022/06/17 01:30:25;;;;;;;9.93;5.78;;;;;;;11.67;95.43;100196.63;1744452;82;21124;-71
2022/06/17 01:33:29;;;;;;;8.90;6.03;;;;;;;11.66;95.58;100201.95;1744384;82;21050;-69
2022/06/17 01:36:17;;;;;;;10.10;5.50;;;;;;;11.64;96.02;100203.35;1744388;82;21085;-71
2022/06/17 01:38:54;;;;;;;7.75;6.20;;;;;;;11.62;96.25;100200.34;1744632;82;21030;-71
2022/06/17 01:41:28;;;;;;;11.18;6.10;;;;;;;11.59;96.30;100195.20;1744365;81;21054;-72
2022/06/17 01:44:08;;;;;;;11.63;6.85;;;;;;;11.54;96.62;100200.20;1715288;82;21578;-72
2022/06/17 01:46:40;;;;;;;8.48;6.33;;;;;;;11.54;97.02;100194.92;1744351;82;21092;-71
2022/06/17 01:49:23;;;;;;;8.98;6.00;;;;;;;11.53;97.36;100187.09;1744717;82;21130;-71
2022/06/17 01:51:56;;;;;;;14.15;5.83;;;;;;;11.51;97.58;100189.78;1744528;82;21050;-71
2022/06/17 01:54:30;;;;;;;9.95;5.70;;;;;;;11.48;97.78;100193.88;1744663;82;21068;-73
2022/06/17 01:57:00;;;;;;;10.85;5.67;;;;;;;11.47;97.98;100186.86;1746974;82;21948;-71
2022/06/17 01:59:42;;;;;;;8.98;5.95;;;;;;;11.46;98.05;100186.48;1748080;82;21002;-72
2022/06/17 02:02:11;;;;;;;8.88;5.97;;;;;;;11.45;98.10;100190.48;1732057;82;22162;-72
2022/06/17 02:04:41;;;;;;;8.43;6.10;;;;;;;11.44;98.23;100187.00;1703445;82;21085;-71
2022/06/17 02:07:14;;;;;;;11.22;5.65;;;;;;;11.46;98.37;100194.39;1748494;82;21239;-73
2022/06/17 02:09:42;;;;;;;10.18;5.95;;;;;;;11.50;98.72;100186.77;1738391;82;21725;-73
2022/06/17 02:12:10;;;;;;;9.48;5.60;;;;;;;11.53;98.80;100194.54;1718071;83;21479;-71
2022/06/17 02:14:39;;;;;;;10.60;6.15;;;;;;;11.54;98.89;100185.69;1726279;82;21159;-72
2022/06/17 02:17:11;;;;;;;7.70;5.12;;;;;;;11.58;99.05;100188.23;1742991;82;21154;-72
2022/06/17 02:19:44;;;;;;;9.40;5.47;;;;;;;11.62;99.15;100189.36;1716029;83;21545;-72
2022/06/17 02:22:25;;;;;;;6.97;5.15;;;;;;;11.66;99.10;100183.48;1718132;83;21217;-72
2022/06/17 02:25:03;;;;;;;10.08;5.90;;;;;;;11.72;98.82;100183.25;1717952;82;21050;-73
2022/06/17 02:27:32;;;;;;;7.80;5.87;;;;;;;11.75;98.41;100181.79;1691751;83;21048;-73
2022/06/17 02:29:59;;;;;;;13.48;6.15;;;;;;;11.80;98.19;100174.57;1718210;83;21056;-70
2022/06/17 02:32:26;;;;;;;9.10;5.83;;;;;;;11.86;98.10;100172.13;1718158;82;22100;-71
2022/06/17 02:34:59;;;;;;;9.65;5.87;;;;;;;11.91;98.04;100173.66;1728241;82;21142;-71
2022/06/17 02:37:26;;;;;;;8.53;5.58;;;;;;;11.99;97.78;100173.83;1733364;82;21605;-73
2022/06/17 02:39:53;;;;;;;16.93;6.15;;;;;;;12.05;97.64;100173.55;1718692;83;21052;-72
2022/06/17 02:42:27;;;;;;;8.93;5.60;;;;;;;12.12;97.70;100168.41;1718222;83;21034;-72
2022/06/17 02:45:00;;;;;;;11.00;6.30;;;;;;;12.17;97.67;100165.98;1728383;82;21104;-72
2022/06/17 02:47:28;;;;;;;5.75;4.55;;;;;;;12.23;97.54;100162.20;1748257;82;21095;-71
2022/06/17 02:49:56;;;;;;;9.13;5.60;;;;;;;12.32;97.27;100169.72;1747995;82;21077;-72
2022/06/17 02:52:36;;;;;;;8.48;5.47;;;;;;;12.43;96.89;100164.45;1748117;82;21585;-71
2022/06/17 02:55:09;;;;;;;8.15;4.67;;;;;;;12.56;96.36;100164.28;1748186;81;21120;-72
2022/06/17 02:57:36;;;;;;;7.40;4.72;;;;;;;12.71;95.82;100164.92;1748109;82;21006;-72
2022/06/17 03:00:17;;;;;;;9.23;5.08;;;;;;;12.84;95.18;100161.70;1748145;82;21557;-71
2022/06/17 03:02:53;;;;;;;10.43;5.65;;;;;;;12.96;94.50;100160.69;1743649;82;21617;-71
2022/06/17 03:05:27;;;;;;;9.70;5.47;;;;;;;13.12;93.63;100158.19;1698891;82;21073;-72
2022/06/17 03:07:56;;;;;;;9.63;5.40;;;;;;;13.25;93.07;100162.89;1725108;82;21062;-72
2022/06/17 03:10:37;;;;;;;8.45;5.72;;;;;;;13.39;92.35;100159.18;1727063;82;21045;-71
2022/06/17 03:13:11;;;;;;;9.58;5.70;;;;;;;13.53;91.25;100154.07;1724900;82;21120;-72
2022/06/17 03:15:40;;;;;;;11.83;5.45;;;;;;;13.67;90.29;100153.86;1708180;82;21080;-71
2022/06/17 03:18:07;;;;;;;13.35;5.97;;;;;;;13.80;89.70;100156.27;1748258;82;22149;-72
2022/06/17 03:20:38;;;;;;;9.65;4.97;;;;;;;13.93;89.41;100145.93;1746283;82;21522;-73
2022/06/17 03:23:21;;;;;;;8.60;5.12;;;;;;;14.07;89.18;100151.38;1700651;83;21120;-73
2022/06/17 03:26:06;;;;;;;7.53;5.12;;;;;;;14.19;88.84;100153.38;1717530;83;21252;-73
2022/06/17 03:28:48;;;;;;;7.50;5.42;;;;;;;14.34;88.08;100150.42;1717238;82;21113;-72
2022/06/17 03:31:41;;;;;;;9.30;5.03;;;;;;;14.50;87.09;100151.80;1717706;83;21041;-71
2022/06/17 03:34:16;;;;;;;14.80;5.12;;;;;;;14.64;86.34;100153.27;1718199;83;21081;-72
2022/06/17 03:36:51;;;;;;;9.15;5.30;;;;;;;14.79;85.66;100147.62;1723299;82;21041;-72
2022/06/17 03:39:35;;;;;;;8.48;5.20;;;;;;;14.96;85.07;100145.85;1727558;82;21160;-73
2022/06/17 03:42:22;;;;;;;9.25;5.50;;;;;;;15.13;84.51;100147.08;1725569;82;21120;-72
2022/06/17 03:44:58;;;;;;;10.82;5.55;;;;;;;15.35;83.67;100144.58;1694961;82;21129;-71
2022/06/17 03:47:46;;;;;;;8.03;4.75;;;;;;;15.56;82.74;100136.70;1725108;82;21080;-71
2022/06/17 03:50:33;;;;;;;10.28;5.72;;;;;;;15.73;81.86;100133.97;1738166;81;21195;-71
2022/06/17 03:53:09;;;;;;;17.25;5.30;;;;;;;15.91;81.34;100139.13;1737971;82;21876;-72
2022/06/17 03:55:37;;;;;;;9.98;5.47;;;;;;;16.13;80.40;100138.24;1729935;82;21037;-71
2022/06/17 03:58:04;;;;;;;12.98;5.65;;;;;;;16.31;79.22;100136.73;1746897;82;21145;-72
2022/06/17 04:00:41;;;;;;;7.30;4.67;;;;;;;16.48;78.29;100129.92;1718130;82;21113;-71
2022/06/17 04:03:20;;;;;;;5.87;4.58;;;;;;;16.69;77.55;100136.20;1693999;82;21060;-72
2022/06/17 04:05:55;;;;;;;7.03;4.87;;;;;;;16.90;76.41;100137.53;1718178;83;21183;-72
2022/06/17 04:08:23;;;;;;;14.83;8.23;;;;;;;17.11;75.67;100135.30;1680891;85;21112;-72
2022/06/17 04:10:51;;;;;;;9.30;5.37;;;;;;;17.30;75.02;100129.67;1718208;83;21044;-72
2022/06/17 04:13:20;;;;;;;8.48;5.62;;;;;;;17.51;74.15;100134.06;1718153;83;21545;-70
2022/06/17 04:16:26;;;;;;;12.10;6.17;;;;;;;17.67;72.36;100131.70;1680954;85;21049;-74
2022/06/17 04:18:52;;;;;;;9.15;5.50;;;;;;;17.85;71.68;100136.31;1717204;83;22424;-73
2022/06/17 04:21:19;;;;;;;10.45;5.22;;;;;;;18.05;70.87;100127.83;1681485;85;21037;-72
2022/06/17 04:23:47;;;;;;;17.87;7.60;;;;;;;18.22;70.67;100129.33;1718297;83;21065;-72
2022/06/17 04:26:34;;;;;;;34.90;13.08;;;;;;;18.41;69.87;100129.77;1681537;85;21067;-72
2022/06/17 04:29:05;;;;;;;43.38;15.58;;;;;;;18.63;69.83;100130.92;1718663;83;21552;-72
2022/06/17 04:31:34;;;;;;;41.10;14.87;;;;;;;18.82;68.76;100135.87;1681368;85;21218;-72
2022/06/17 04:34:14;;;;;;;33.90;15.13;;;;;;;18.99;68.65;100126.16;1718054;83;21120;-73
2022/06/17 04:36:49;;;;;;;30.72;13.55;;;;;;;19.13;67.61;100126.97;1680919;85;21087;-74
2022/06/17 04:39:34;;;;;;;32.30;13.83;;;;;;;19.36;66.62;100128.80;1718154;83;21065;-71
2022/06/17 04:42:07;;;;;;;27.60;9.83;;;;;;;19.58;65.15;100123.20;1680516;85;21592;-72
2022/06/17 04:44:35;;;;;;;21.33;10.35;;;;;;;19.81;61.83;100121.04;1724704;82;21207;-71
2022/06/17 04:47:14;;;;;;;20.27;9.95;;;;;;;20.02;60.62;100123.89;1747993;82;21057;-72
2022/06/17 04:49:57;;;;;;;21.55;9.28;;;;;;;20.19;58.62;100123.92;1747956;81;21097;-72
2022/06/17 04:52:34;;;;;;;22.00;9.98;;;;;;;20.35;57.40;100122.73;1747731;82;21506;-72
2022/06/17 04:55:29;;;;;;;23.02;9.13;;;;;;;20.44;56.91;100119.34;1735190;81;21100;-72
2022/06/17 04:58:03;;;;;;;13.80;7.53;;;;;;;20.54;56.29;100122.53;1732672;82;21829;-71
2022/06/17 05:00:31;;;;;;;17.45;6.80;;;;;;;20.69;54.89;100119.64;1733712;82;21035;-72
2022/06/17 05:02:59;;;;;;;12.35;5.42;;;;;;;20.84;54.28;100121.56;1733796;82;21585;-71
2022/06/17 05:05:40;;;;;;;13.48;5.37;;;;;;;21.03;53.39;100116.44;1709358;82;21054;-72
2022/06/17 05:08:30;;;;;;;12.28;5.72;;;;;;;21.23;52.75;100112.13;1737486;82;21043;-71
2022/06/17 05:11:06;;;;;;;12.05;5.35;;;;;;;21.43;51.71;100117.22;1734258;82;21033;-72
2022/06/17 05:13:40;;;;;;;10.53;5.97;;;;;;;21.72;51.28;100116.64;1733904;82;21038;-73
2022/06/17 05:16:12;;;;;;;13.62;5.72;;;;;;;21.89;50.06;100109.34;1732644;82;21038;-73
2022/06/17 05:18:37;;;;;;;12.00;5.53;;;;;;;22.15;49.07;100111.63;1734397;82;21046;-72
2022/06/17 05:21:23;;;;;;;11.20;5.70;;;;;;;22.33;49.16;100111.42;1734306;82;21049;-73
2022/06/17 05:23:55;;;;;;;11.43;6.03;;;;;;;22.54;48.33;100110.03;1734231;81;21143;-73
2022/06/17 05:26:23;;;;;;;11.48;5.37;;;;;;;22.77;46.16;100105.33;1734392;82;21514;-73
2022/06/17 05:28:50;;;;;;;10.93;5.25;;;;;;;23.05;46.05;100100.21;1734502;82;21070;-73
2022/06/17 05:31:20;;;;;;;10.88;4.92;;;;;;;23.39;45.74;100089.11;1734934;82;21035;-73
2022/06/17 05:33:54;;;;;;;12.70;4.72;;;;;;;23.60;44.98;100092.53;1733109;82;21045;-72
2022/06/17 05:36:22;;;;;;;9.28;4.37;;;;;;;23.81;44.20;100091.53;1734368;82;21233;-73
2022/06/17 05:38:50;;;;;;;12.60;4.50;;;;;;;24.10;43.78;100091.50;1734295;82;21090;-75
2022/06/17 05:41:20;;;;;;;13.70;4.58;;;;;;;24.44;42.43;100081.06;1734533;82;21007;-73
2022/06/17 05:43:49;;;;;;;;;;;;;;;24.68;41.21;100087.78;1736735;82;21228;-73
2022/06/17 05:46:18;;;;;;;7.30;4.17;;;;;;;24.76;40.84;100085.21;1706145;82;20154;-72
2022/06/17 05:48:47;;;;;;;7.58;3.87;;;;;;;24.91;40.62;100082.84;1703436;83;21136;-73
2022/06/17 05:51:32;;;;;;;12.03;4.25;;;;;;;25.13;40.47;100088.33;1704985;84;21039;-73
2022/06/17 05:54:09;;;;;;;4.17;2.20;;;;;;;25.36;39.65;100086.58;1701552;84;21034;-72
2022/06/17 05:56:47;;;;;;;4.50;2.27;;;;;;;25.36;36.22;100087.92;1708886;83;22175;-72
2022/06/17 05:59:13;;;;;;;6.65;2.65;;;;;;;25.44;35.54;100089.34;1718252;83;21092;-72
2022/06/17 06:01:41;;;;;;;6.30;2.60;;;;;;;25.35;35.86;100083.52;1718295;83;21535;-73
2022/06/17 06:04:08;;;;;;;4.20;2.72;;;;;;;25.40;36.07;100085.25;1718409;83;21058;-73
2022/06/17 06:06:35;;;;;;;9.23;2.90;;;;;;;25.47;35.43;100080.96;1718082;83;21113;-73
2022/06/17 06:09:02;;;;;;;6.00;2.55;;;;;;;25.48;35.75;100079.95;1718195;83;20994;-73
2022/06/17 06:11:30;;;;;;;4.33;2.37;;;;;;;25.58;35.52;100079.35;1718223;83;21060;-73
2022/06/17 06:13:57;;;;;;;5.72;3.10;;;;;;;25.80;34.91;100073.14;1717958;83;21116;-73
2022/06/17 06:16:25;;;;;;;6.97;2.83;;;;;;;26.10;35.49;100075.41;1718271;83;21030;-74
2022/06/17 06:18:55;;;;;;;5.85;2.70;;;;;;;26.39;34.02;100072.91;1718048;83;21026;-75
2022/06/17 06:21:26;;;;;;;7.53;3.02;;;;;;;26.39;33.67;100074.25;1718415;83;21105;-74
2022/06/17 06:23:56;;;;;;;6.05;2.80;;;;;;;26.45;34.17;100066.84;1718747;83;21046;-72
2022/06/17 06:26:25;;;;;;;5.90;2.80;;;;;;;26.63;33.90;100072.70;1718221;82;21049;-73
2022/06/17 06:28:54;;;;;;;3.42;2.60;;;;;;;26.78;33.45;100069.23;1715846;83;21487;-71
2022/06/17 06:31:33;;;;;;;5.90;2.45;;;;;;;26.66;33.05;100069.67;1717368;83;21218;-72
2022/06/17 06:34:03;;;;;;;8.50;2.95;;;;;;;26.62;33.75;100069.64;1717975;83;21053;-72
2022/06/17 06:36:34;;;;;;;5.60;2.70;;;;;;;26.69;34.00;100062.61;1717622;83;21077;-73
2022/06/17 06:39:00;;;;;;;8.70;2.65;;;;;;;26.69;33.48;100066.66;1718040;83;21127;-74
2022/06/17 06:41:27;;;;;;;23.80;3.50;;;;;;;26.50;33.27;100062.30;1691561;83;21072;-74
2022/06/17 06:43:55;;;;;;;3.58;1.77;;;;;;;26.63;33.21;100065.44;1718591;83;21088;-73
2022/06/17 06:46:38;;;;;;;6.37;2.00;;;;;;;26.64;30.82;100063.58;1708463;83;21044;-73
2022/06/17 06:49:06;;;;;;;4.97;1.90;;;;;;;26.60;30.88;100060.38;1718344;83;21010;-72
2022/06/17 06:51:33;;;;;;;9.68;2.05;;;;;;;26.60;30.67;100059.02;1718280;83;21497;-72
2022/06/17 06:54:00;;;;;;;6.33;1.72;;;;;;;26.38;31.10;100060.39;1718120;83;21056;-73
2022/06/17 06:56:28;;;;;;;4.70;1.75;;;;;;;26.25;30.67;100066.72;1714295;83;21007;-73
2022/06/17 06:58:55;;;;;;;3.92;1.37;;;;;;;26.09;30.29;100062.94;1704500;84;21089;-74
2022/06/17 07:01:22;;;;;;;3.08;1.60;;;;;;;26.08;30.26;100059.04;1705080;84;21146;-74
2022/06/17 07:03:49;;;;;;;3.80;1.30;;;;;;;26.31;30.07;100053.95;1704815;83;21156;-74
2022/06/17 07:06:18;;;;;;;2.90;1.82;;;;;;;26.36;29.48;100057.00;1705027;83;21121;-73
2022/06/17 07:08:46;;;;;;;4.58;1.57;;;;;;;26.39;29.47;100056.70;1704894;84;21084;-73
2022/06/17 07:11:16;;;;;;;4.70;1.82;;;;;;;26.58;29.62;100052.94;1705085;84;21086;-73
2022/06/17 07:13:43;;;;;;;6.40;1.90;;;;;;;26.79;29.03;100051.16;1704895;83;21046;-73
2022/06/17 07:16:13;;;;;;;3.87;1.40;;;;;;;26.88;28.03;100050.17;1704705;84;21615;-74
2022/06/17 07:18:39;;;;;;;4.97;1.70;;;;;;;26.68;28.72;100056.84;1704680;84;21049;-73
2022/06/17 07:21:10;;;;;;;3.37;1.55;;;;;;;26.75;28.82;100054.67;1705192;83;21574;-71
2022/06/17 07:23:41;;;;;;;4.70;1.67;;;;;;;26.74;28.99;100058.91;1704914;84;21077;-71
2022/06/17 07:26:20;;;;;;;6.78;1.37;;;;;;;26.77;28.29;100059.92;1704706;83;21812;-74
2022/06/17 07:28:49;;;;;;;3.17;1.57;;;;;;;26.91;27.77;100063.34;1704636;84;21184;-73
2022/06/17 07:31:16;;;;;;;4.12;1.57;;;;;;;27.07;26.76;100059.00;1704912;84;21109;-73
2022/06/17 07:33:43;;;;;;;4.08;1.30;;;;;;;27.16;26.53;100060.71;1704739;83;21061;-72
2022/06/17 07:41:44;;;;;;;5.12;1.40;;;;;;;27.67;25.69;100064.16;1704968;84;21761;-73
2022/06/17 07:44:10;;;;;;;6.72;1.50;;;;;;;27.60;26.58;100052.33;1704371;84;21050;-73
2022/06/17 07:46:37;;;;;;;2.95;1.47;;;;;;;27.86;26.12;100054.04;1704796;83;21145;-72
2022/06/17 07:49:03;;;;;;;3.22;1.52;;;;;;;27.97;25.95;100057.23;1704314;84;21585;-72
2022/06/17 07:51:30;;;;;;;3.92;1.40;;;;;;;28.20;26.25;100058.72;1704748;84;21022;-71
2022/06/17 07:53:57;;;;;;;3.47;1.40;;;;;;;28.46;26.03;100052.23;1704941;84;21317;-73
2022/06/17 07:56:24;;;;;;;3.00;1.30;;;;;;;28.62;25.73;100061.69;1706049;83;21049;-72
2022/06/17 07:58:52;;;;;;;4.37;1.47;;;;;;;28.57;24.04;100058.63;1718190;83;21061;-74
2022/06/17 08:01:19;;;;;;;6.87;1.27;;;;;;;28.32;25.20;100059.22;1718111;83;21049;-72
2022/06/17 08:03:46;;;;;;;5.50;1.45;;;;;;;28.09;24.77;100055.53;1729873;82;21045;-73
2022/06/17 08:06:14;;;;;;;6.15;1.60;;;;;;;28.04;25.05;100057.39;1747906;82;21173;-72
2022/06/17 08:08:43;;;;;;;4.40;1.42;;;;;;;28.20;24.66;100060.06;1747847;82;21092;-72
2022/06/17 08:11:11;;;;;;;4.35;1.60;;;;;;;28.45;23.70;100054.08;1748104;82;21058;-72
2022/06/17 08:13:37;;;;;;;2.52;1.10;;;;;;;28.82;23.36;100047.69;1747906;82;21065;-72
2022/06/17 08:16:07;;;;;;;4.92;1.10;;;;;;;28.55;23.10;100051.70;1748206;82;21003;-73
2022/06/17 08:18:36;;;;;;;4.17;1.52;;;;;;;28.27;23.55;100059.38;1748565;82;21804;-72
2022/06/17 08:21:03;;;;;;;2.98;1.20;;;;;;;28.17;23.75;100049.59;1748070;82;21049;-74
2022/06/17 08:23:30;;;;;;;3.55;1.32;;;;;;;28.15;24.01;100057.05;1748286;82;21057;-72
2022/06/17 08:25:58;;;;;;;5.80;1.47;;;;;;;28.48;23.87;100051.55;1748115;82;21101;-73
2022/06/17 08:28:25;;;;;;;7.80;1.90;;;;;;;28.85;23.33;100054.13;1748150;82;21080;-71
2022/06/17 08:30:53;;;;;;;4.35;1.40;;;;;;;29.03;23.72;100049.28;1748511;82;21109;-73
2022/06/17 08:33:33;;;;;;;3.27;1.23;;;;;;;28.95;23.07;100060.68;1748486;82;21013;-72
2022/06/17 08:36:08;;;;;;;2.45;1.20;;;;;;;28.72;23.13;100045.20;1746844;82;21018;-73
2022/06/17 08:38:42;;;;;;;4.50;1.30;;;;;;;28.69;23.71;100050.13;1748240;82;21531;-72
2022/06/17 08:41:19;;;;;;;2.47;1.30;;;;;;;28.41;23.60;100042.41;1748482;82;21653;-72
2022/06/17 08:44:17;;;;;;;4.12;1.32;;;;;;;27.85;23.62;100051.02;1746652;81;21235;-73
2022/06/17 08:46:58;;;;;;;5.67;1.45;;;;;;;27.23;25.19;100044.71;1718689;83;21022;-72
2022/06/17 08:50:13;;;;;;;1.82;1.20;;;;;;;27.02;26.05;100047.84;1718913;83;21013;-72
2022/06/17 08:52:46;;;;;;;4.97;1.42;;;;;;;26.90;26.16;100041.40;1718571;83;21116;-72
2022/06/17 08:55:52;;;;;;;5.03;1.60;;;;;;;26.81;26.09;100038.84;1718095;83;21053;-73
2022/06/17 08:58:48;;;;;;;6.08;1.82;;;;;;;26.73;26.42;100052.67;1708315;83;21968;-74
2022/06/17 09:01:23;;;;;;;4.15;1.60;;;;;;;26.48;26.49;100042.72;1705675;84;21544;-74
2022/06/17 09:04:16;;;;;;;3.42;1.50;;;;;;;26.21;27.65;100050.02;1705635;84;21045;-72
2022/06/17 09:07:16;;;;;;;5.40;1.30;;;;;;;26.46;26.69;100051.51;1676675;83;21017;-73
2022/06/17 09:10:11;;;;;;;;;;;;;;;26.84;26.07;100046.09;1707386;84;21062;-73
2022/06/17 09:12:52;;;;;;;3.98;1.50;;;;;;;27.30;25.95;100040.32;1706345;84;21199;-72
2022/06/17 09:15:53;;;;;;;3.95;1.70;;;;;;;27.94;25.29;100035.10;1705007;84;21066;-74
2022/06/17 09:18:29;;;;;;;3.95;1.40;;;;;;;28.53;24.12;100034.29;1705124;84;21089;-72
2022/06/17 09:21:18;;;;;;;5.03;1.37;;;;;;;28.99;23.41;100030.33;1704852;84;21109;-73
2022/06/17 09:23:45;;;;;;;3.67;1.30;;;;;;;29.05;23.13;100029.59;1682278;84;21159;-73
2022/06/17 09:26:26;;;;;;;3.77;1.65;;;;;;;28.81;23.93;100024.33;1704810;84;22137;-73
2022/06/17 09:29:16;;;;;;;3.05;1.35;;;;;;;28.76;23.85;100025.36;1704534;83;21120;-74
2022/06/17 09:31:50;;;;;;;;;;;;;;;28.88;22.56;100013.11;1707434;84;21018;-73
2022/06/17 09:34:40;;;;;;;6.05;1.37;;;;;;;29.11;23.69;100019.11;1704707;83;20205;-73
2022/06/17 09:37:13;;;;;;;6.08;1.80;;;;;;;28.96;23.54;100030.66;1704442;84;21109;-73
2022/06/17 09:39:51;;;;;;;7.47;1.50;;;;;;;28.63;24.30;100025.42;1704636;83;21485;-73
2022/06/17 09:42:38;;;;;;;3.27;1.40;;;;;;;28.63;24.00;100020.01;1701744;84;21110;-73
2022/06/17 09:45:18;;;;;;;3.77;1.70;;;;;;;29.11;23.10;100019.11;1704547;84;21049;-73
2022/06/17 09:47:49;;;;;;;20.60;2.35;;;;;;;29.74;22.74;100012.50;1705325;84;21069;-73
2022/06/17 09:50:29;;;;;;;5.25;1.37;;;;;;;29.79;22.16;100012.78;1684541;84;21054;-73
2022/06/17 09:53:19;;;;;;;2.37;1.12;;;;;;;29.53;22.32;100013.69;1705216;84;21231;-73
2022/06/17 09:55:57;;;;;;;4.00;1.27;;;;;;;29.74;21.86;100007.07;1704912;84;21736;-73
2022/06/17 09:58:32;;;;;;;6.75;1.62;;;;;;;29.99;22.04;100015.81;1704734;83;21062;-74
2022/06/17 10:01:00;;;;;;;4.67;1.37;;;;;;;29.99;22.04;100015.81;1705048;84;21038;-73
2022/06/17 10:03:36;;;;;;;4.33;1.20;;;;;;;30.21;21.05;100007.27;1684680;84;21070;-73
2022/06/17 10:06:41;;;;;;;3.33;1.50;;;;;;;30.47;21.08;100008.69;1704797;84;21836;-73
2022/06/17 10:09:28;;;;;;;2.80;1.30;;;;;;;30.48;20.93;99998.12;1704954;84;21025;-73
2022/06/17 10:12:12;;;;;;;5.35;1.62;;;;;;;30.48;20.93;99998.12;1704871;83;21197;-73
2022/06/17 10:15:08;;;;;;;5.33;1.27;;;;;;;30.15;20.78;99996.31;1705028;84;21073;-74
2022/06/17 10:21:10;;;;;;;2.67;1.40;;;;;;;29.54;22.34;99992.30;1704800;84;22069;-73
2022/06/17 10:24:08;;;;;;;1.75;1.15;;;;;;;29.54;22.34;99992.30;1704963;84;21022;-73
2022/06/17 10:26:53;;;;;;;9.20;1.62;;;;;;;30.55;21.66;99993.62;1704799;84;21054;-73
2022/06/17 10:29:37;;;;;;;5.53;1.30;;;;;;;30.55;21.66;99993.62;1704911;84;21082;-73
2022/06/17 10:32:05;;;;;;;5.12;1.50;;;;;;;30.73;21.30;99980.45;1704497;83;21112;-73
2022/06/17 10:34:43;;;;;;;5.58;1.30;;;;;;;30.56;21.43;99995.32;1704489;84;22067;-73
2022/06/17 10:37:10;;;;;;;2.67;1.22;;;;;;;30.10;21.98;99983.30;1704591;83;21033;-74
2022/06/17 10:39:37;;;;;;;3.58;1.70;;;;;;;29.53;23.07;99983.33;1704776;84;21085;-74
2022/06/17 10:42:06;;;;;;;4.05;1.50;;;;;;;28.78;22.76;99979.95;1704758;83;21490;-72
2022/06/17 10:44:34;;;;;;;2.37;1.57;;;;;;;28.45;23.63;99982.30;1702577;84;21530;-73
2022/06/17 10:47:36;;;;;;;3.80;1.60;;;;;;;28.38;24.14;99983.19;1689885;84;21094;-73
2022/06/17 10:50:14;;;;;;;2.12;1.42;;;;;;;28.27;23.98;99984.41;1689811;84;21057;-73
2022/06/17 10:52:47;;;;;;;2.67;1.57;;;;;;;28.06;24.13;99982.28;1690219;84;21072;-73
2022/06/17 10:55:18;;;;;;;2.30;1.50;;;;;;;27.98;24.39;99985.03;1710373;82;21034;-73
2022/06/17 10:58:19;;;;;;;5.80;1.50;;;;;;;27.95;24.59;99983.52;1736832;81;21546;-74
2022/06/17 11:01:04;;;;;;;12.25;1.80;;;;;;;27.88;24.57;99974.89;1747880;82;21048;-73
2022/06/17 11:03:35;;;;;;;6.12;1.65;;;;;;;27.65;24.28;99980.98;1747901;82;21037;-73
2022/06/17 11:06:13;;;;;;;3.75;1.65;;;;;;;27.45;24.86;99975.10;1748251;81;22070;-73
2022/06/17 11:08:59;;;;;;;4.42;1.40;;;;;;;27.50;24.97;99975.94;1737997;82;21085;-75
2022/06/17 11:14:25;;;;;;;6.12;1.50;;;;;;;27.70;25.44;99977.28;1747994;82;21045;-74
2022/06/17 11:16:52;;;;;;;3.15;1.60;;;;;;;27.74;25.43;99980.47;1747698;82;21487;-73
2022/06/17 11:19:22;;;;;;;9.55;1.52;;;;;;;27.75;25.47;99974.89;1747968;82;21169;-72
2022/06/17 11:21:55;;;;;;;3.42;1.40;;;;;;;27.82;25.80;99974.53;1748201;82;21042;-73
2022/06/17 11:24:29;;;;;;;6.33;1.60;;;;;;;27.91;25.12;99974.05;1747710;81;21104;-72
2022/06/17 11:27:24;;;;;;;3.67;1.37;;;;;;;28.07;25.56;99963.69;1747661;82;21909;-73
2022/06/17 11:29:52;;;;;;;5.80;1.70;;;;;;;28.12;25.05;99964.00;1747739;81;21053;-73
2022/06/17 11:32:33;;;;;;;5.53;1.80;;;;;;;28.20;25.62;99960.41;1748316;82;21605;-73
2022/06/17 11:35:21;;;;;;;3.77;1.57;;;;;;;28.18;26.07;99958.38;1747903;82;22177;-73
2022/06/17 11:37:48;;;;;;;3.50;1.57;;;;;;;28.08;27.00;99959.11;1748169;82;21565;-73
2022/06/17 11:40:22;;;;;;;4.28;1.70;;;;;;;28.04;27.04;99959.95;1747750;82;21141;-74
2022/06/17 11:43:02;;;;;;;7.92;1.80;;;;;;;28.06;26.69;99957.92;1748364;82;21094;-73
2022/06/17 11:45:36;;;;;;;4.45;1.50;;;;;;;28.10;26.57;99956.56;1748466;82;21041;-73
2022/06/17 11:48:19;;;;;;;4.08;1.52;;;;;;;28.20;26.15;99961.77;1748452;82;21593;-75
2022/06/17 11:51:31;;;;;;;3.15;1.55;;;;;;;28.38;26.42;99957.46;1748075;82;21624;-72
2022/06/17 11:54:20;;;;;;;3.98;1.67;;;;;;;28.70;25.35;99959.70;1748317;82;21539;-74
2022/06/17 11:56:47;;;;;;;2.40;1.42;;;;;;;28.85;25.29;99956.05;1748052;82;21065;-74
2022/06/17 11:59:20;;;;;;;3.77;1.47;;;;;;;28.86;25.02;99948.75;1748020;81;21054;-73
2022/06/17 12:01:55;;;;;;;4.62;1.50;;;;;;;28.98;25.42;99947.30;1748111;82;21013;-72
2022/06/17 12:04:54;;;;;;;2.25;1.47;;;;;;;29.12;25.34;99950.28;1745244;82;21105;-72
2022/06/17 12:07:49;;;;;;;6.30;1.50;;;;;;;29.34;24.84;99944.00;1748118;81;21147;-71
2022/06/17 12:12:45;;;;;;;3.87;1.90;;;;;;;29.59;24.87;99939.19;1810491;78;23272;-72
2022/06/17 12:15:29;;;;;;;10.60;2.00;;;;;;;29.54;25.07;99942.11;1790547;80;20972;-72
2022/06/17 12:17:57;;;;;;;5.00;1.90;;;;;;;29.56;24.41;99937.34;1790504;80;21124;-72
2022/06/17 12:20:50;;;;;;;5.72;2.27;;;;;;;29.31;25.21;99938.95;1790816;80;21529;-72